Time;durP1;ratioP1;P1;durP2;ratioP2;P2;SDS_P1;SDS_P2;PMS_P1;PMS_P2;Temp;Humidity;BMP_temperature;BMP_pressure;BME280_temperature;BME280_humidity;BME280_pressure;Samples;Min_cycle;Max_cycle;Signal;HPM_P1;HPM_P2
2021/04/09 01:20:29;;;;;;;8.07;3.15;;;3.40;78.50;;;;;;4813695;29;20445;-94
2021/04/09 02:07:48;;;;;;;3.80;2.92;;;3.20;78.70;;;;;;4794778;30;20042;-96
2021/04/09 02:31:12;;;;;;;;;;;;;;;;;;;;;
2021/04/09 03:04:33;;;;;;;6.07;3.72;;;3.30;78.10;;;;;;4812316;29;20487;-95
2021/04/09 06:03:52;;;;;;;7.75;4.13;;;4.70;74.10;;;;;;4867504;29;20079;-95
2021/04/09 06:07:05;;;;;;;10.25;4.47;;;4.80;73.90;;;;;;4796688;29;20050;-95
2021/04/09 06:19:50;;;;;;;7.00;3.72;;;5.00;73.20;;;;;;4871481;29;20041;-96
2021/04/09 06:26:29;;;;;;;;;;;;;;;;;;;;;
2021/04/09 07:00:10;;;;;;;5.88;3.63;;;6.90;69.10;;;;;;4858976;29;20035;-94
2021/04/09 07:02:47;;;;;;;;;;;7.20;68.20;;;;;;4941874;29;20036;-94
2021/04/09 07:05:32;;;;;;;4.07;3.17;;;7.40;68.60;;;;;;4927153;29;19910;-94
2021/04/09 07:08:10;;;;;;;9.65;4.18;;;7.40;67.30;;;;;;4943060;29;20035;-94
2021/04/09 07:11:06;;;;;;;5.68;4.07;;;7.60;67.80;;;;;;4927088;29;20067;-94
2021/04/09 07:13:59;;;;;;;5.80;3.78;;;7.80;67.60;;;;;;4927147;29;20047;-94
2021/04/09 07:16:27;;;;;;;5.43;3.95;;;8.10;66.20;;;;;;4926896;29;20422;-93
2021/04/09 07:19:13;;;;;;;7.40;4.65;;;8.30;66.40;;;;;;4943056;29;20040;-92
2021/04/09 07:21:47;;;;;;;8.32;3.70;;;8.40;64.50;;;;;;4926982;29;20040;-93
2021/04/09 07:24:13;;;;;;;8.55;4.03;;;8.40;63.60;;;;;;4927014;29;20091;-93
2021/04/09 07:26:50;;;;;;;7.00;3.83;;;8.50;63.90;;;;;;4927022;29;20335;-92
2021/04/09 07:29:39;;;;;;;7.68;3.63;;;8.50;63.80;;;;;;4926868;29;20389;-92
2021/04/09 07:32:47;;;;;;;7.43;4.20;;;8.60;63.20;;;;;;4926971;29;20036;-94
2021/04/09 07:35:19;;;;;;;5.95;3.58;;;8.70;63.70;;;;;;4926808;29;20126;-93
2021/04/09 07:37:53;;;;;;;6.85;4.18;;;8.80;63.90;;;;;;4926814;29;20472;-91
2021/04/09 07:43:18;;;;;;;10.40;3.95;;;9.10;64.00;;;;;;4929082;29;20046;-93
2021/04/09 07:45:58;;;;;;;5.97;3.63;;;9.20;63.10;;;;;;4926868;29;20391;-93
2021/04/09 07:48:43;;;;;;;9.45;4.18;;;9.30;62.90;;;;;;4946408;29;20044;-92
2021/04/09 07:51:18;;;;;;;6.38;4.32;;;9.50;62.20;;;;;;4927150;29;20131;-93
2021/04/09 07:53:45;;;;;;;7.95;4.15;;;9.60;62.70;;;;;;4926176;29;20039;-92
2021/04/09 07:56:12;;;;;;;5.95;3.75;;;9.70;61.70;;;;;;4942516;29;20123;-93
2021/04/09 07:58:39;;;;;;;6.88;3.80;;;9.90;60.80;;;;;;4926206;29;20063;-92
2021/04/09 08:01:17;;;;;;;5.22;3.70;;;9.90;60.60;;;;;;4926097;29;20046;-92
2021/04/09 08:03:42;;;;;;;7.07;3.67;;;10.00;61.20;;;;;;4926207;29;20122;-93
2021/04/09 08:06:18;;;;;;;8.25;3.75;;;10.10;61.60;;;;;;4942525;29;20051;-93
2021/04/09 08:08:46;;;;;;;5.90;3.38;;;10.30;61.60;;;;;;4926062;29;20044;-93
2021/04/09 08:11:31;;;;;;;4.55;3.45;;;10.30;61.10;;;;;;4925553;29;20039;-92
2021/04/09 08:14:13;;;;;;;7.55;3.95;;;10.50;60.00;;;;;;4926206;29;20039;-93
2021/04/09 08:16:43;;;;;;;6.32;3.72;;;10.60;59.90;;;;;;4927063;29;20035;-91
2021/04/09 08:19:11;;;;;;;6.50;3.95;;;10.70;59.00;;;;;;4927271;29;20096;-93
2021/04/09 08:21:51;;;;;;;9.18;4.97;;;10.80;58.90;;;;;;4925700;29;20035;-93
2021/04/09 08:24:22;;;;;;;5.57;3.67;;;10.90;60.00;;;;;;4926328;29;20375;-93
2021/04/09 08:26:49;;;;;;;8.13;4.15;;;11.00;60.20;;;;;;4925373;29;20040;-93
2021/04/09 08:29:15;;;;;;;5.47;4.07;;;11.00;58.10;;;;;;4925442;29;20094;-94
2021/04/09 08:31:42;;;;;;;8.48;3.83;;;11.00;59.40;;;;;;4925862;29;20126;-92
2021/04/09 08:34:08;;;;;;;4.53;3.22;;;11.10;59.80;;;;;;4941233;29;20432;-92
2021/04/09 08:36:37;;;;;;;7.55;3.58;;;11.10;57.80;;;;;;4925381;29;20040;-93
2021/04/09 08:39:04;;;;;;;7.45;3.75;;;11.10;58.50;;;;;;4925557;29;20039;-93
2021/04/09 08:41:30;;;;;;;7.78;3.70;;;11.10;57.10;;;;;;4928058;29;20070;-92
2021/04/09 08:43:56;;;;;;;6.50;3.83;;;11.10;58.60;;;;;;4942252;29;20290;-92
2021/04/09 08:46:22;;;;;;;6.30;3.35;;;11.10;58.60;;;;;;4926479;29;20135;-93
2021/04/09 08:48:49;;;;;;;6.20;3.63;;;11.10;57.60;;;;;;4941464;29;20079;-93
2021/04/09 08:51:21;;;;;;;5.88;3.72;;;11.10;58.90;;;;;;4925453;29;20054;-91
2021/04/09 08:53:46;;;;;;;5.72;4.05;;;11.10;58.80;;;;;;4941907;29;20074;-91
2021/04/09 08:56:12;;;;;;;6.85;4.63;;;11.00;58.30;;;;;;4941120;29;20064;-91
2021/04/09 08:58:46;;;;;;;4.70;3.35;;;11.00;58.70;;;;;;4941302;29;20082;-93
2021/04/09 09:01:14;;;;;;;5.72;3.80;;;11.00;59.10;;;;;;4925896;29;20044;-91
2021/04/09 09:03:40;;;;;;;6.72;3.10;;;11.00;56.70;;;;;;4925417;29;20040;-93
2021/04/09 09:06:07;;;;;;;6.78;3.47;;;11.00;58.10;;;;;;4924954;29;20043;-92
2021/04/09 09:08:48;;;;;;;6.20;3.53;;;11.10;57.80;;;;;;4925170;29;20409;-92
2021/04/09 09:11:34;;;;;;;6.38;3.35;;;11.10;57.10;;;;;;4924976;29;20126;-91
2021/04/09 09:14:00;;;;;;;6.80;3.40;;;11.10;57.40;;;;;;4924953;29;20042;-92
2021/04/09 09:16:35;;;;;;;4.93;2.95;;;11.30;59.30;;;;;;4925266;29;20036;-91
2021/04/09 09:19:02;;;;;;;4.45;3.63;;;11.50;56.40;;;;;;4924858;29;20035;-91
2021/04/09 09:21:35;;;;;;;4.55;3.40;;;11.60;55.80;;;;;;4925373;29;20036;-92
2021/04/09 09:24:16;;;;;;;8.27;3.72;;;11.80;55.60;;;;;;4924870;29;20050;-91
2021/04/09 09:26:44;;;;;;;5.10;3.40;;;12.00;57.40;;;;;;4928392;29;20122;-92
2021/04/09 09:29:23;;;;;;;6.38;3.72;;;12.10;53.90;;;;;;4928690;29;20090;-91
2021/04/09 09:31:48;;;;;;;7.97;3.60;;;12.20;56.70;;;;;;4928591;29;20070;-91
2021/04/09 09:34:17;;;;;;;6.90;3.45;;;12.40;55.30;;;;;;4928640;29;20386;-90
2021/04/09 09:37:06;;;;;;;5.18;3.42;;;12.50;56.00;;;;;;4931235;29;20046;-92
2021/04/09 09:39:38;;;;;;;6.57;3.75;;;12.50;54.00;;;;;;4928673;29;20118;-92
2021/04/09 09:42:12;;;;;;;8.77;4.38;;;12.70;55.00;;;;;;4928755;29;20522;-92
2021/04/09 09:44:42;;;;;;;11.30;5.10;;;12.80;54.60;;;;;;4928530;29;20039;-91
2021/04/09 09:47:22;;;;;;;5.28;3.03;;;12.90;55.20;;;;;;4928551;29;20035;-92
2021/04/09 09:50:12;;;;;;;7.55;3.70;;;13.10;53.00;;;;;;4944585;29;20044;-90
2021/04/09 09:52:53;;;;;;;7.80;3.53;;;13.40;53.40;;;;;;4928000;29;20130;-91
2021/04/09 09:55:42;;;;;;;4.35;3.35;;;13.60;53.60;;;;;;4927883;29;20131;-91
2021/04/09 09:58:26;;;;;;;6.60;3.42;;;13.90;52.70;;;;;;4944094;29;20039;-91
2021/04/09 10:00:53;;;;;;;7.72;3.60;;;14.10;52.90;;;;;;4927355;29;20039;-91
2021/04/09 10:03:30;;;;;;;5.13;3.17;;;14.30;53.00;;;;;;4927387;29;20051;-90
2021/04/09 10:06:04;;;;;;;5.28;3.00;;;14.40;50.30;;;;;;4944017;29;20071;-89
2021/04/09 10:08:31;;;;;;;6.50;3.75;;;14.60;51.00;;;;;;4927392;29;20326;-90
2021/04/09 10:11:03;;;;;;;5.43;3.17;;;14.70;47.80;;;;;;4943748;29;20032;-91
2021/04/09 10:13:39;;;;;;;4.60;3.20;;;14.60;47.30;;;;;;4927668;29;20044;-92
2021/04/09 10:16:09;;;;;;;5.63;3.28;;;14.60;48.90;;;;;;4927191;29;20031;-89
2021/04/09 10:18:36;;;;;;;6.85;3.38;;;14.60;48.50;;;;;;4927730;29;20106;-91
2021/04/09 10:21:23;;;;;;;6.53;3.10;;;14.60;47.20;;;;;;4927955;29;20596;-92
2021/04/09 10:24:02;;;;;;;8.63;3.25;;;14.70;49.80;;;;;;4931436;29;20039;-90
2021/04/09 10:26:28;;;;;;;3.92;3.10;;;14.70;49.80;;;;;;4931795;29;20043;-93
2021/04/09 10:28:53;;;;;;;5.93;3.25;;;14.70;48.80;;;;;;4930458;29;20044;-90
2021/04/09 10:31:20;;;;;;;4.40;3.22;;;14.60;47.60;;;;;;4945162;29;20054;-90
2021/04/09 10:33:49;;;;;;;5.55;3.15;;;14.50;48.60;;;;;;4928878;29;20042;-91
2021/04/09 10:36:21;;;;;;;6.38;3.25;;;14.40;48.80;;;;;;4927683;29;20130;-92
2021/04/09 10:38:52;;;;;;;5.70;2.95;;;14.30;49.30;;;;;;4927358;29;20183;-91
2021/04/09 10:41:31;;;;;;;6.78;3.63;;;14.20;50.10;;;;;;4927813;29;20047;-92
2021/04/09 10:44:11;;;;;;;6.47;3.67;;;14.40;49.40;;;;;;4927734;29;20086;-92
2021/04/09 10:46:41;;;;;;;7.85;3.58;;;14.40;48.40;;;;;;4927522;29;20040;-93
2021/04/09 10:49:10;;;;;;;8.40;3.42;;;14.50;51.10;;;;;;4927651;29;20354;-94
2021/04/09 10:51:52;;;;;;;6.43;4.03;;;14.50;48.90;;;;;;4927270;29;20079;-92
2021/04/09 10:54:20;;;;;;;3.75;2.67;;;14.60;46.60;;;;;;4927489;29;20131;-93
2021/04/09 10:56:51;;;;;;;5.55;3.63;;;14.40;48.70;;;;;;4927341;29;20298;-93
2021/04/09 10:59:18;;;;;;;5.22;3.17;;;14.40;48.50;;;;;;4927287;29;20288;-93
2021/04/09 11:01:44;;;;;;;5.03;3.40;;;14.40;48.30;;;;;;4927319;29;20066;-94
2021/04/09 11:04:13;;;;;;;5.07;3.03;;;14.50;50.20;;;;;;4943491;29;20625;-93
2021/04/09 11:06:39;;;;;;;6.28;3.95;;;14.60;46.50;;;;;;4927152;29;20055;-92
2021/04/09 11:09:08;;;;;;;4.50;3.50;;;14.50;48.50;;;;;;4942858;29;20047;-93
2021/04/09 11:11:39;;;;;;;7.13;4.38;;;14.60;50.10;;;;;;4927371;29;20082;-93
2021/04/09 11:14:19;;;;;;;4.55;3.25;;;14.60;48.40;;;;;;4927234;29;20367;-92
2021/04/09 11:16:52;;;;;;;6.05;3.58;;;14.60;49.30;;;;;;4927155;29;20032;-93
2021/04/09 11:19:22;;;;;;;4.47;3.15;;;14.70;48.80;;;;;;4926956;29;20131;-92
2021/04/09 11:21:50;;;;;;;7.63;2.92;;;14.70;46.80;;;;;;4929979;29;20106;-93
2021/04/09 11:24:22;;;;;;;4.47;3.15;;;14.70;46.60;;;;;;4926951;29;20035;-94
2021/04/09 11:26:48;;;;;;;5.32;3.85;;;14.70;47.20;;;;;;4926883;29;20106;-92
2021/04/09 11:29:33;;;;;;;5.10;3.13;;;14.70;47.20;;;;;;4927010;29;20383;-94
2021/04/09 11:32:44;;;;;;;5.47;4.03;;;14.70;48.80;;;;;;4942446;29;20085;-93
2021/04/09 11:35:11;;;;;;;4.93;3.13;;;14.90;48.00;;;;;;4942780;29;20031;-92
2021/04/09 11:37:50;;;;;;;12.85;4.15;;;14.90;48.10;;;;;;4927102;29;20039;-94
2021/04/09 11:40:38;;;;;;;8.18;3.42;;;14.80;46.70;;;;;;4926484;29;20135;-93
2021/04/09 11:43:06;;;;;;;6.13;3.83;;;14.80;48.50;;;;;;4942854;29;20036;-92
2021/04/09 11:45:46;;;;;;;6.28;3.70;;;15.00;49.50;;;;;;4926241;29;20122;-92
2021/04/09 11:48:33;;;;;;;6.40;3.13;;;15.10;49.60;;;;;;4925902;29;20075;-93
2021/04/09 11:51:21;;;;;;;9.38;3.47;;;15.20;49.90;;;;;;4926361;29;20134;-91
2021/04/09 11:54:03;;;;;;;6.07;3.83;;;15.30;50.50;;;;;;4926331;29;20044;-93
2021/04/09 11:56:48;;;;;;;6.03;3.35;;;15.40;47.80;;;;;;4926504;29;20035;-94
2021/04/09 11:59:16;;;;;;;5.85;3.50;;;15.40;46.80;;;;;;4926225;29;20126;-93
2021/04/09 12:01:55;;;;;;;5.35;4.10;;;15.30;47.00;;;;;;4926349;29;20106;-95
2021/04/09 12:13:37;;;;;;;8.57;4.10;;;15.20;46.70;;;;;;4794567;29;20114;-94
2021/04/09 12:16:03;;;;;;;5.85;3.63;;;15.30;50.80;;;;;;4839485;29;20037;-94
2021/04/09 12:18:29;;;;;;;4.70;3.50;;;15.40;50.20;;;;;;4879381;29;20040;-93
2021/04/09 12:20:55;;;;;;;5.63;3.78;;;15.60;47.10;;;;;;4941856;29;20294;-94
2021/04/09 12:23:20;;;;;;;6.50;3.80;;;15.70;48.40;;;;;;4942360;29;20541;-94
2021/04/09 12:25:46;;;;;;;5.05;3.05;;;15.80;50.70;;;;;;4941961;29;20067;-94
2021/04/09 12:28:18;;;;;;;6.05;3.88;;;15.90;46.60;;;;;;4931474;29;20027;-94
2021/04/09 12:30:44;;;;;;;13.77;3.85;;;16.00;46.80;;;;;;4942268;29;20042;-93
2021/04/09 12:33:22;;;;;;;;;;;;;;;;;;;;;
2021/04/09 12:36:17;;;;;;;;;;;;;;;;;;;;;
2021/04/09 12:38:42;;;;;;;7.97;3.65;;;16.00;48.80;;;;;;4904842;29;20059;-94
2021/04/09 12:41:10;;;;;;;6.63;4.13;;;16.20;46.30;;;;;;4941356;29;20134;-92
2021/04/09 12:43:36;;;;;;;5.63;3.92;;;16.20;46.50;;;;;;4941355;29;20054;-93
2021/04/09 12:46:07;;;;;;;6.15;3.45;;;16.00;47.00;;;;;;4921232;29;20040;-91
2021/04/09 12:48:35;;;;;;;7.55;4.13;;;15.90;45.40;;;;;;4920055;29;20048;-94
2021/04/09 12:51:01;;;;;;;6.30;3.80;;;16.00;45.40;;;;;;4941165;29;20039;-94
2021/04/09 12:53:29;;;;;;;5.35;3.97;;;15.90;45.30;;;;;;4925670;29;20114;-94
2021/04/09 12:55:55;;;;;;;6.95;3.88;;;15.90;46.30;;;;;;4925610;29;20044;-94
2021/04/09 12:58:20;;;;;;;5.30;3.53;;;15.90;45.90;;;;;;4941055;29;20063;-94
2021/04/09 13:00:46;;;;;;;6.90;3.58;;;15.80;45.40;;;;;;4943978;29;20051;-92
2021/04/09 13:03:11;;;;;;;7.50;4.05;;;15.90;47.30;;;;;;4943267;29;20047;-94
2021/04/09 13:05:37;;;;;;;6.53;3.72;;;15.90;48.20;;;;;;4941721;29;20107;-95
2021/04/09 13:08:03;;;;;;;6.25;3.47;;;15.90;46.20;;;;;;4941280;29;20326;-93
2021/04/09 13:10:32;;;;;;;6.25;4.15;;;16.10;47.50;;;;;;4924979;29;20363;-95
2021/04/09 13:12:57;;;;;;;9.48;3.67;;;16.20;43.50;;;;;;4941509;29;20046;-93
2021/04/09 13:15:32;;;;;;;8.77;3.75;;;16.30;47.60;;;;;;4941477;29;20036;-93
2021/04/09 13:17:58;;;;;;;6.03;3.42;;;16.40;46.70;;;;;;4941391;29;20405;-94
2021/04/09 13:20:26;;;;;;;5.72;3.92;;;16.40;44.80;;;;;;4941124;29;20047;-93
2021/04/09 13:25:51;;;;;;;5.95;3.85;;;16.40;43.80;;;;;;4931260;29;20055;-93
2021/04/09 13:28:17;;;;;;;10.75;4.47;;;16.40;44.60;;;;;;4924896;29;20406;-95
2021/04/09 13:30:44;;;;;;;6.43;3.22;;;16.20;44.40;;;;;;4925582;29;20052;-95
2021/04/09 13:33:11;;;;;;;7.30;3.42;;;16.30;44.70;;;;;;4940691;29;20085;-93
2021/04/09 13:35:37;;;;;;;5.75;3.63;;;16.20;44.10;;;;;;4925113;29;20036;-92
2021/04/09 13:38:10;;;;;;;9.38;3.70;;;16.20;46.00;;;;;;4925072;29;20133;-93
2021/04/09 13:40:44;;;;;;;6.38;3.20;;;16.30;45.30;;;;;;4941042;29;20051;-94
2021/04/09 13:43:30;;;;;;;5.50;3.47;;;16.40;45.10;;;;;;4940833;29;20039;-94
2021/04/09 13:45:58;;;;;;;5.47;3.33;;;16.50;44.00;;;;;;4923985;29;20074;-94
2021/04/09 13:48:24;;;;;;;7.38;4.45;;;16.50;43.40;;;;;;4941073;29;20134;-93
2021/04/09 13:50:51;;;;;;;5.38;3.75;;;16.50;46.20;;;;;;4943961;29;20082;-94
2021/04/09 13:53:17;;;;;;;5.45;3.45;;;16.50;46.20;;;;;;4924550;29;20647;-93
2021/04/09 13:55:43;;;;;;;6.88;4.13;;;16.30;43.70;;;;;;4924738;29;20095;-93
2021/04/09 13:58:09;;;;;;;5.13;3.65;;;16.10;43.50;;;;;;4940684;29;20390;-93
2021/04/09 14:00:35;;;;;;;10.55;3.45;;;16.10;45.10;;;;;;4942438;29;20043;-90
2021/04/09 14:03:02;;;;;;;5.47;3.53;;;16.20;47.20;;;;;;4941183;29;20126;-92
2021/04/09 14:05:28;;;;;;;5.43;3.13;;;16.30;43.40;;;;;;4924606;29;20035;-92
2021/04/09 14:07:54;;;;;;;10.82;3.92;;;16.30;45.60;;;;;;4924657;29;20031;-93
2021/04/09 14:10:20;;;;;;;6.90;3.28;;;16.40;45.50;;;;;;4940412;29;20114;-93
2021/04/09 14:12:46;;;;;;;8.25;3.95;;;16.50;44.00;;;;;;4942172;29;20040;-93
2021/04/09 14:15:13;;;;;;;5.90;3.55;;;16.50;45.00;;;;;;4928730;29;20098;-92
2021/04/09 14:17:40;;;;;;;8.13;3.70;;;16.50;44.10;;;;;;4928064;29;20067;-93
2021/04/09 14:20:12;;;;;;;7.03;4.10;;;16.50;45.10;;;;;;4928193;29;20054;-93
2021/04/09 14:22:38;;;;;;;5.38;3.42;;;16.60;44.20;;;;;;4928002;29;20272;-93
2021/04/09 14:25:05;;;;;;;4.57;2.92;;;16.60;41.80;;;;;;4928076;29;20799;-93
2021/04/09 14:27:31;;;;;;;4.68;2.75;;;16.50;41.90;;;;;;4927918;29;20047;-93
2021/04/09 14:29:57;;;;;;;5.18;3.22;;;16.30;41.50;;;;;;4927734;29;20054;-95
2021/04/09 14:32:26;;;;;;;4.63;2.92;;;16.30;42.20;;;;;;4944268;29;20040;-92
2021/04/09 14:34:52;;;;;;;5.35;3.05;;;16.30;43.40;;;;;;4943928;29;20122;-94
2021/04/09 14:37:17;;;;;;;6.95;3.50;;;16.20;43.00;;;;;;4943809;29;20086;-93
2021/04/09 14:39:52;;;;;;;5.60;3.05;;;16.30;41.70;;;;;;4947111;29;20070;-94
2021/04/09 14:42:21;;;;;;;4.63;2.85;;;16.30;42.80;;;;;;4949552;29;20040;-92
2021/04/09 14:44:50;;;;;;;22.88;3.30;;;16.30;41.70;;;;;;4927833;29;20046;-94
2021/04/09 14:47:16;;;;;;;5.47;3.13;;;16.20;42.90;;;;;;4943828;29;20127;-93
2021/04/09 14:49:42;;;;;;;5.45;3.30;;;16.10;41.80;;;;;;4943514;29;20063;-93
2021/04/09 14:52:08;;;;;;;5.20;3.10;;;16.10;42.80;;;;;;4927393;29;20063;-94
2021/04/09 14:54:33;;;;;;;5.82;3.50;;;16.20;42.80;;;;;;4943468;29;20097;-93
2021/04/09 14:57:41;;;;;;;7.43;4.15;;;16.30;42.10;;;;;;4943667;29;20039;-96
2021/04/09 15:00:12;;;;;;;7.38;3.00;;;16.40;41.80;;;;;;4943407;29;20107;-95
2021/04/09 15:02:45;;;;;;;5.35;2.33;;;16.50;42.60;;;;;;4927511;29;20071;-94
2021/04/09 15:05:16;;;;;;;5.18;3.20;;;16.60;41.90;;;;;;4927210;29;20074;-95
2021/04/09 15:07:45;;;;;;;7.47;4.00;;;16.60;42.30;;;;;;4927112;29;20039;-95
2021/04/09 15:10:30;;;;;;;6.65;3.63;;;16.50;41.90;;;;;;4927046;29;20039;-95
2021/04/09 15:13:07;;;;;;;5.40;3.08;;;16.40;41.60;;;;;;4927447;29;20508;-94
2021/04/09 15:15:32;;;;;;;4.63;2.90;;;16.30;41.80;;;;;;4943089;29;20097;-94
2021/04/09 15:18:12;;;;;;;4.75;2.90;;;16.30;43.50;;;;;;4942813;29;20039;-93
2021/04/09 15:21:04;;;;;;;8.05;3.38;;;16.20;44.10;;;;;;4927197;29;20039;-94
2021/04/09 15:23:42;;;;;;;6.38;3.22;;;16.00;43.70;;;;;;4926246;29;20051;-95
2021/04/09 15:26:12;;;;;;;4.72;3.45;;;15.90;42.60;;;;;;4927336;29;20039;-95
2021/04/09 15:28:51;;;;;;;4.88;3.28;;;15.80;42.30;;;;;;4942837;29;20114;-94
2021/04/09 15:31:22;;;;;;;4.95;3.20;;;15.70;43.40;;;;;;4930120;29;20134;-95
2021/04/09 15:33:56;;;;;;;5.90;3.20;;;15.60;45.30;;;;;;4942979;29;20043;-94
2021/04/09 15:36:26;;;;;;;7.30;3.42;;;15.70;44.80;;;;;;4926286;29;20062;-94
2021/04/09 15:38:54;;;;;;;10.80;4.32;;;15.60;44.20;;;;;;4926563;29;20058;-94
2021/04/09 15:41:23;;;;;;;8.30;3.80;;;15.50;44.00;;;;;;4942797;29;20039;-94
2021/04/09 15:43:51;;;;;;;9.88;3.55;;;15.50;43.80;;;;;;4942532;29;20302;-94
2021/04/09 15:46:50;;;;;;;4.82;3.55;;;15.50;43.60;;;;;;4942558;29;20039;-94
2021/04/09 15:49:16;;;;;;;6.78;3.92;;;15.40;43.30;;;;;;4927563;29;20135;-91
2021/04/09 15:51:48;;;;;;;6.43;3.22;;;15.30;43.50;;;;;;4933997;29;20389;-94
2021/04/09 15:54:13;;;;;;;7.05;3.20;;;15.20;44.00;;;;;;4926518;29;20681;-94
2021/04/09 15:56:42;;;;;;;4.68;3.05;;;15.20;43.80;;;;;;4942622;29;20032;-94
2021/04/09 15:59:10;;;;;;;9.00;4.00;;;15.20;43.40;;;;;;4941939;29;20044;-94
2021/04/09 16:01:39;;;;;;;12.57;3.55;;;15.20;43.80;;;;;;4926307;29;20035;-95
2021/04/09 16:04:08;;;;;;;5.05;2.95;;;15.10;44.90;;;;;;4925799;29;20078;-94
2021/04/09 16:07:29;;;;;;;5.30;2.80;;;15.20;43.80;;;;;;4925917;29;20145;-95
2021/04/09 16:10:47;;;;;;;11.43;3.53;;;15.10;43.30;;;;;;4925930;29;20051;-94
2021/04/09 16:14:09;;;;;;;;;;;;;;;;;;;;;
2021/04/09 16:27:35;;;;;;;10.32;4.07;;;15.10;43.80;;;;;;4865250;29;20033;-94
2021/04/09 16:31:07;;;;;;;;;;;;;;;;;;;;;
2021/04/09 16:55:22;;;;;;;6.18;3.63;;;14.60;43.70;;;;;;4755930;30;20129;-94
2021/04/09 19:38:16;;;;;;;;;;;;;;;;;;;;;
2021/04/09 20:55:51;;;;;;;;;;;;;;;;;;;;;
2021/04/09 21:03:20;;;;;;;;;;;;;;;;;;;;;
2021/04/09 21:29:27;;;;;;;12.48;7.13;;;9.80;59.10;;;;;;4938558;29;20035;-94
2021/04/09 22:16:33;;;;;;;18.58;9.35;;;9.10;67.20;;;;;;4813091;29;20052;-94
